createdAt,value
2023-05-25T00:00:00.668Z,12.32
2023-05-25T00:02:27.903Z,13.82
2023-05-25T00:04:55.027Z,12.10
2023-05-25T00:07:22.189Z,12.80
2023-05-25T00:09:49.263Z,10.55
2023-05-25T00:12:16.416Z,13.38
2023-05-25T00:14:43.504Z,10.23
2023-05-25T00:17:11.350Z,12.20
2023-05-25T00:19:42.484Z,9.82
2023-05-25T00:22:10.470Z,11.45
2023-05-25T00:24:38.041Z,12.13
2023-05-25T00:27:06.956Z,11.48
2023-05-25T00:29:34.345Z,11.93
2023-05-25T00:32:01.516Z,9.07
2023-05-25T00:34:28.735Z,10.40
2023-05-25T00:36:55.835Z,11.82
2023-05-25T00:39:22.954Z,10.05
2023-05-25T00:41:50.151Z,9.85
2023-05-25T00:44:21.587Z,9.77
2023-05-25T00:46:50.710Z,14.73
2023-05-25T00:49:18.961Z,13.18
2023-05-25T00:51:46.781Z,12.73
2023-05-25T00:54:17.123Z,12.27
2023-05-25T00:56:48.219Z,10.38
2023-05-25T00:59:25.674Z,10.10
2023-05-25T01:01:54.407Z,10.77
2023-05-25T01:04:22.323Z,13.25
2023-05-25T01:06:49.961Z,12.25
2023-05-25T01:09:18.181Z,13.85
2023-05-25T01:11:45.720Z,11.48
2023-05-25T01:14:13.325Z,15.60
2023-05-25T01:16:40.873Z,11.55
2023-05-25T01:19:07.984Z,13.98
2023-05-25T01:21:42.471Z,9.63
2023-05-25T01:24:22.362Z,13.70
2023-05-25T01:26:53.898Z,10.93
2023-05-25T01:29:22.005Z,14.45
2023-05-25T01:31:49.441Z,11.10
2023-05-25T01:34:17.332Z,9.25
2023-05-25T01:36:44.539Z,9.43
2023-05-25T01:39:12.669Z,16.83
2023-05-25T01:41:39.815Z,13.85
2023-05-25T01:44:07.708Z,13.40
2023-05-25T01:46:41.621Z,18.02
2023-05-25T01:51:58.116Z,15.77
2023-05-25T01:54:29.585Z,12.27
2023-05-25T01:57:01.321Z,15.90
2023-05-25T01:59:29.207Z,12.10
2023-05-25T02:01:56.810Z,12.77
2023-05-25T02:04:24.045Z,14.02
2023-05-25T02:06:52.733Z,14.68
2023-05-25T02:09:19.896Z,15.98
2023-05-25T02:11:46.997Z,13.45
2023-05-25T02:14:14.131Z,12.50
2023-05-25T02:16:41.271Z,18.67
2023-05-25T02:19:08.323Z,18.00
2023-05-25T02:21:37.621Z,14.88
2023-05-25T02:24:04.800Z,17.23
2023-05-25T02:26:31.907Z,16.75
2023-05-25T02:28:58.993Z,14.52
2023-05-25T02:31:26.215Z,15.48
2023-05-25T02:33:53.341Z,21.70
2023-05-25T02:36:21.064Z,15.20
2023-05-25T02:38:49.910Z,18.88
2023-05-25T02:41:17.116Z,25.20
2023-05-25T02:43:44.293Z,19.45
2023-05-25T02:46:11.487Z,19.23
2023-05-25T02:48:38.601Z,20.10
2023-05-25T02:51:06.004Z,20.75
2023-05-25T02:53:33.128Z,21.17
2023-05-25T02:56:02.091Z,21.60
2023-05-25T02:58:29.157Z,21.92
2023-05-25T03:00:56.289Z,23.80
2023-05-25T03:03:23.428Z,21.33
2023-05-25T03:05:50.535Z,24.23
2023-05-25T03:08:17.718Z,22.02
2023-05-25T03:10:45.010Z,24.73
2023-05-25T03:13:12.094Z,23.25
2023-05-25T03:15:40.171Z,25.88
2023-05-25T03:18:07.538Z,23.92
2023-05-25T03:20:34.864Z,22.67
2023-05-25T03:23:02.149Z,22.23
2023-05-25T03:25:29.234Z,21.23
2023-05-25T03:27:56.398Z,23.30
2023-05-25T03:30:24.002Z,27.10
2023-05-25T03:32:51.209Z,22.13
2023-05-25T03:35:18.452Z,20.77
2023-05-25T03:37:45.644Z,19.00
2023-05-25T03:40:12.851Z,20.92
2023-05-25T03:42:40.900Z,20.48
2023-05-25T03:45:09.258Z,19.92
2023-05-25T03:47:39.494Z,21.65
2023-05-25T03:50:10.110Z,18.33
2023-05-25T03:52:37.294Z,22.77
2023-05-25T03:55:05.778Z,23.95
2023-05-25T03:57:32.965Z,20.70
2023-05-25T04:00:00.170Z,20.30
2023-05-25T04:02:27.550Z,22.20
2023-05-25T04:04:56.468Z,19.67
2023-05-25T04:07:23.562Z,18.58
2023-05-25T04:09:50.784Z,23.90
2023-05-25T04:12:17.919Z,19.27
2023-05-25T04:14:46.052Z,19.05
2023-05-25T04:17:13.240Z,19.02
2023-05-25T04:19:40.330Z,16.85
2023-05-25T04:22:07.418Z,21.02
2023-05-25T04:24:34.893Z,19.60
2023-05-25T04:27:02.247Z,21.88
2023-05-25T04:29:29.648Z,18.08
2023-05-25T04:31:56.833Z,17.40
2023-05-25T04:34:24.069Z,19.67
2023-05-25T04:36:51.152Z,17.10
2023-05-25T04:39:18.622Z,19.40
2023-05-25T04:41:45.731Z,19.17
2023-05-25T04:44:13.945Z,20.95
2023-05-25T04:46:41.309Z,18.95
2023-05-25T04:49:08.637Z,18.20
2023-05-25T04:51:36.904Z,17.63
2023-05-25T04:54:04.299Z,17.55
2023-05-25T04:56:31.443Z,17.60
2023-05-25T04:58:58.625Z,19.88
2023-05-25T05:01:26.589Z,22.77
2023-05-25T05:03:53.773Z,18.17
2023-05-25T05:06:21.717Z,19.90
2023-05-25T05:08:48.824Z,21.65
2023-05-25T05:11:15.913Z,21.90
2023-05-25T05:13:42.972Z,18.58
2023-05-25T05:16:10.196Z,18.77
2023-05-25T05:18:37.374Z,19.58
2023-05-25T05:21:04.483Z,22.65
2023-05-25T05:23:33.827Z,20.90
2023-05-25T05:26:01.348Z,20.45
2023-05-25T05:28:29.799Z,17.48
2023-05-25T05:30:56.931Z,18.30
2023-05-25T05:33:24.374Z,21.20
2023-05-25T05:35:52.463Z,17.65
2023-05-25T05:38:19.869Z,19.65
2023-05-25T05:40:47.166Z,18.55
2023-05-25T05:43:14.940Z,21.95
2023-05-25T05:45:42.124Z,20.70
2023-05-25T05:48:12.544Z,19.50
2023-05-25T05:50:42.060Z,19.50
2023-05-25T05:53:10.045Z,19.27
2023-05-25T05:55:37.474Z,21.30
2023-05-25T05:58:04.697Z,18.75
2023-05-25T06:00:31.852Z,21.08
2023-05-25T06:03:00.793Z,20.63
2023-05-25T06:05:28.317Z,17.33
2023-05-25T06:07:55.473Z,22.58
2023-05-25T06:10:22.635Z,19.38
2023-05-25T06:12:49.793Z,20.90
2023-05-25T06:15:16.989Z,20.70
2023-05-25T06:17:44.263Z,17.50
2023-05-25T06:20:11.566Z,20.35
2023-05-25T06:22:38.790Z,19.35
2023-05-25T06:25:06.301Z,18.85
2023-05-25T06:27:33.381Z,19.13
2023-05-25T06:30:00.542Z,19.13
2023-05-25T06:32:27.716Z,19.52
2023-05-25T06:34:55.587Z,21.98
2023-05-25T06:37:22.753Z,20.70
2023-05-25T06:39:49.863Z,19.95
2023-05-25T06:42:16.989Z,19.38
2023-05-25T06:44:44.032Z,21.17
2023-05-25T06:47:11.254Z,19.95
2023-05-25T06:49:38.354Z,21.02
2023-05-25T06:52:05.628Z,18.65
2023-05-25T06:54:33.015Z,17.73
2023-05-25T06:57:00.105Z,20.33
2023-05-25T06:59:27.705Z,18.95
2023-05-25T07:01:56.210Z,19.60
2023-05-25T07:04:23.598Z,22.40
2023-05-25T07:06:51.854Z,18.60
2023-05-25T07:09:18.937Z,19.10
2023-05-25T07:11:46.281Z,17.13
2023-05-25T07:14:13.712Z,18.73
2023-05-25T07:16:40.916Z,21.20
2023-05-25T07:19:08.198Z,17.90
2023-05-25T07:21:36.475Z,19.50
2023-05-25T07:24:03.991Z,19.00
2023-05-25T07:26:36.482Z,19.05
2023-05-25T07:29:03.727Z,20.23
2023-05-25T07:31:30.924Z,18.90
2023-05-25T07:33:58.042Z,19.27
2023-05-25T07:36:25.151Z,19.55
2023-05-25T07:38:52.730Z,18.45
2023-05-25T07:41:19.907Z,18.05
2023-05-25T07:43:46.999Z,20.33
2023-05-25T07:46:14.122Z,18.10
2023-05-25T07:48:41.324Z,19.48
2023-05-25T07:51:08.801Z,21.77
2023-05-25T07:53:36.227Z,20.33
2023-05-25T07:56:03.612Z,15.98
2023-05-25T07:58:30.780Z,20.48
2023-05-25T08:00:57.962Z,17.27
2023-05-25T08:03:39.862Z,19.67
2023-05-25T08:06:12.559Z,16.80
2023-05-25T08:08:39.680Z,20.30
2023-05-25T08:11:06.307Z,18.92
2023-05-25T08:13:33.021Z,16.55
2023-05-25T08:15:59.683Z,19.85
2023-05-25T08:18:26.413Z,19.48
2023-05-25T08:20:53.108Z,17.80
2023-05-25T08:23:19.792Z,19.00
2023-05-25T08:25:46.667Z,16.42
2023-05-25T08:28:13.582Z,17.08
2023-05-25T08:30:41.160Z,16.88
2023-05-25T08:33:08.621Z,16.75
2023-05-25T08:35:39.267Z,15.85
2023-05-25T08:38:06.403Z,18.35
2023-05-25T08:40:33.452Z,17.13
2023-05-25T08:43:00.540Z,19.70
2023-05-25T08:48:01.001Z,19.63
2023-05-25T08:50:28.589Z,17.13
2023-05-25T08:52:56.252Z,18.80
2023-05-25T08:55:23.832Z,16.27
2023-05-25T08:57:55.771Z,17.02
2023-05-25T09:00:26.301Z,15.98
2023-05-25T09:02:59.529Z,18.30
2023-05-25T09:05:26.895Z,11.38
2023-05-25T09:07:54.808Z,16.15
2023-05-25T09:10:22.938Z,16.27
2023-05-25T09:12:51.705Z,16.30
2023-05-25T09:15:19.370Z,15.82
2023-05-25T09:17:46.612Z,18.58
2023-05-25T09:20:14.305Z,15.93
2023-05-25T09:22:42.201Z,17.08
2023-05-25T09:25:11.483Z,14.88
2023-05-25T09:27:38.719Z,16.58
2023-05-25T09:30:06.594Z,17.38
2023-05-25T09:32:33.833Z,17.83
2023-05-25T09:35:07.841Z,16.95
2023-05-25T09:40:02.217Z,16.02
2023-05-25T09:42:29.972Z,18.35
2023-05-25T09:44:58.836Z,15.90
2023-05-25T09:47:26.036Z,17.85
2023-05-25T09:49:53.584Z,15.48
2023-05-25T09:52:21.491Z,14.40
2023-05-25T09:54:49.213Z,17.25
2023-05-25T09:57:17.083Z,14.63
2023-05-25T09:59:45.220Z,17.38
2023-05-25T10:02:13.138Z,15.82
2023-05-25T10:04:41.271Z,15.52
2023-05-25T10:07:09.025Z,16.65
2023-05-25T10:09:44.001Z,14.38
2023-05-25T10:12:11.891Z,15.80
2023-05-25T10:14:39.078Z,17.58
2023-05-25T10:17:07.549Z,15.55
2023-05-25T10:19:42.782Z,17.67
2023-05-25T10:22:09.939Z,18.50
2023-05-25T10:24:45.890Z,17.90
2023-05-25T10:27:26.403Z,15.27
2023-05-25T10:29:56.562Z,16.65
2023-05-25T10:32:23.819Z,15.05
2023-05-25T10:34:52.950Z,15.23
2023-05-25T10:37:20.114Z,17.38
2023-05-25T10:39:47.342Z,17.88
2023-05-25T10:42:14.071Z,16.15
2023-05-25T10:44:44.737Z,17.83
2023-05-25T10:47:12.272Z,18.83
2023-05-25T10:49:56.116Z,16.13
2023-05-25T10:52:27.700Z,16.35
2023-05-25T10:55:01.546Z,15.73
2023-05-25T11:00:00.996Z,16.65
2023-05-25T11:02:28.960Z,15.93
2023-05-25T11:05:30.789Z,16.33
2023-05-25T11:07:58.578Z,15.45
2023-05-25T11:10:50.297Z,17.95
2023-05-25T11:13:32.753Z,15.73
2023-05-25T11:16:18.221Z,19.88
2023-05-25T11:18:46.536Z,15.40
2023-05-25T11:21:18.785Z,16.90
2023-05-25T11:24:04.383Z,15.63
2023-05-25T11:26:33.402Z,16.65
2023-05-25T11:29:01.806Z,15.05
2023-05-25T11:31:36.358Z,19.05
2023-05-25T11:34:06.321Z,15.13
2023-05-25T11:36:35.367Z,16.35
2023-05-25T11:39:10.918Z,18.25
2023-05-25T11:41:42.147Z,17.38
2023-05-25T11:44:09.244Z,16.20
2023-05-25T11:46:38.849Z,15.73
2023-05-25T11:49:06.078Z,16.95
2023-05-25T11:51:33.192Z,15.90
2023-05-25T11:54:00.546Z,16.23
2023-05-25T11:56:35.697Z,17.65
2023-05-25T11:59:03.315Z,14.88
2023-05-25T12:01:32.067Z,14.98
2023-05-25T12:03:59.790Z,15.75
2023-05-25T12:06:28.970Z,16.52
2023-05-25T12:08:56.673Z,15.88
2023-05-25T12:11:39.621Z,15.80
2023-05-25T12:14:08.322Z,15.98
2023-05-25T12:16:38.726Z,15.45
2023-05-25T12:19:06.123Z,14.75
2023-05-25T12:21:33.554Z,14.77
2023-05-25T12:24:01.603Z,15.80
2023-05-25T12:26:28.749Z,14.27
2023-05-25T12:29:00.198Z,14.10
2023-05-25T12:31:28.483Z,15.57
2023-05-25T12:34:05.278Z,13.60
2023-05-25T12:36:39.761Z,13.95
2023-05-25T12:39:07.480Z,14.13
2023-05-25T12:41:44.690Z,13.68
2023-05-25T12:44:18.878Z,13.65
2023-05-25T12:46:46.156Z,14.43
2023-05-25T12:49:32.106Z,14.73
2023-05-25T12:52:01.203Z,14.90
2023-05-25T12:54:35.658Z,15.02
2023-05-25T12:57:05.585Z,16.75
2023-05-25T12:59:33.556Z,13.88
2023-05-25T13:02:00.593Z,15.05
2023-05-25T13:04:27.696Z,15.98
2023-05-25T13:06:55.555Z,15.52
2023-05-25T13:09:29.573Z,15.43
2023-05-25T13:11:57.091Z,15.45
2023-05-25T13:14:24.545Z,15.68
2023-05-25T13:16:52.297Z,13.95
2023-05-25T13:19:20.705Z,16.85
2023-05-25T13:21:49.368Z,16.17
2023-05-25T13:24:16.658Z,14.48
2023-05-25T13:26:45.666Z,15.85
2023-05-25T13:29:13.756Z,17.10
2023-05-25T13:31:41.838Z,14.80
2023-05-25T13:34:09.267Z,16.10
2023-05-25T13:36:36.915Z,14.77
2023-05-25T13:39:05.366Z,17.40
2023-05-25T13:41:32.600Z,16.42
2023-05-25T13:43:59.787Z,16.65
2023-05-25T13:49:00.404Z,16.20
2023-05-25T13:51:27.537Z,18.27
2023-05-25T13:53:54.658Z,15.43
2023-05-25T13:56:22.284Z,17.00
2023-05-25T13:58:49.568Z,16.73
2023-05-25T14:01:16.828Z,15.60
2023-05-25T14:03:44.257Z,15.40
2023-05-25T14:06:11.378Z,16.48
2023-05-25T14:08:38.689Z,17.17
2023-05-25T14:11:05.852Z,17.80
2023-05-25T14:13:33.550Z,14.48
2023-05-25T14:16:01.136Z,15.77
2023-05-25T14:18:28.342Z,15.30
2023-05-25T14:20:55.579Z,15.30
2023-05-25T14:23:23.214Z,14.98
2023-05-25T14:25:50.406Z,15.20
2023-05-25T14:28:17.580Z,17.15
2023-05-25T14:30:44.718Z,15.73
2023-05-25T14:33:15.741Z,14.60
2023-05-25T14:35:43.516Z,14.45
2023-05-25T14:38:11.158Z,16.17
2023-05-25T14:40:38.348Z,13.18
2023-05-25T14:43:05.520Z,17.15
2023-05-25T14:45:32.607Z,14.85
2023-05-25T14:48:11.902Z,13.27
2023-05-25T14:50:44.575Z,12.45
2023-05-25T14:53:11.976Z,15.50
2023-05-25T14:55:40.820Z,14.38
2023-05-25T14:58:08.051Z,13.23
2023-05-25T15:00:35.250Z,14.85
2023-05-25T15:03:02.648Z,12.65
2023-05-25T15:05:29.822Z,14.90
2023-05-25T15:07:56.904Z,12.70
2023-05-25T15:10:24.155Z,13.38
2023-05-25T15:12:51.238Z,13.98
2023-05-25T15:15:18.513Z,15.30
2023-05-25T15:17:45.797Z,14.20
2023-05-25T15:20:13.083Z,16.42
2023-05-25T15:22:40.806Z,14.02
2023-05-25T15:25:08.279Z,14.35
2023-05-25T15:27:35.435Z,14.77
2023-05-25T15:30:03.054Z,13.30
2023-05-25T15:32:30.201Z,13.20
2023-05-25T15:34:57.485Z,13.18
2023-05-25T15:37:24.585Z,12.77
2023-05-25T15:39:51.725Z,10.38
2023-05-25T15:42:20.505Z,14.45
2023-05-25T15:44:48.713Z,10.75
2023-05-25T15:47:16.088Z,12.38
2023-05-25T15:49:43.155Z,12.18
2023-05-25T15:52:10.244Z,10.00
2023-05-25T15:54:37.347Z,13.25
2023-05-25T15:57:04.627Z,14.43
2023-05-25T15:59:31.882Z,12.18
2023-05-25T16:01:59.156Z,11.68
2023-05-25T16:04:26.457Z,10.30
2023-05-25T16:06:53.569Z,11.02
2023-05-25T16:09:20.662Z,13.45
2023-05-25T16:11:47.895Z,11.45
2023-05-25T16:14:15.028Z,9.80
2023-05-25T16:16:42.441Z,13.93
2023-05-25T16:19:10.508Z,15.90
2023-05-25T16:21:39.501Z,11.80
2023-05-25T16:24:07.209Z,9.52
2023-05-25T16:26:35.199Z,12.68
2023-05-25T16:29:02.358Z,12.55
2023-05-25T16:31:29.639Z,9.75
2023-05-25T16:33:56.880Z,13.80
2023-05-25T16:36:25.297Z,11.57
2023-05-25T16:38:53.769Z,11.18
2023-05-25T16:41:20.918Z,11.23
2023-05-25T16:43:47.971Z,14.27
2023-05-25T16:46:15.405Z,11.15
2023-05-25T16:48:42.577Z,11.25
2023-05-25T16:51:14.850Z,12.02
2023-05-25T16:53:43.397Z,9.45
2023-05-25T16:56:11.027Z,11.63
2023-05-25T16:58:38.128Z,13.18
2023-05-25T17:01:06.113Z,12.00
2023-05-25T17:03:34.239Z,12.75
2023-05-25T17:06:01.583Z,10.95
2023-05-25T17:08:28.879Z,16.30
2023-05-25T17:10:56.622Z,9.88
2023-05-25T17:13:23.746Z,8.75
2023-05-25T17:15:50.849Z,10.00
2023-05-25T17:18:18.051Z,11.27
2023-05-25T17:20:45.380Z,8.73
2023-05-25T17:23:12.542Z,9.63
2023-05-25T17:25:39.712Z,13.50
2023-05-25T17:28:06.897Z,10.07
2023-05-25T17:30:34.058Z,12.93
2023-05-25T17:33:01.733Z,11.18
2023-05-25T17:35:29.354Z,10.30
2023-05-25T17:37:56.573Z,12.30
2023-05-25T17:40:23.818Z,10.18
2023-05-25T17:42:50.914Z,10.00
2023-05-25T17:45:18.075Z,6.97
2023-05-25T17:47:45.313Z,10.50
2023-05-25T17:50:12.508Z,10.68
2023-05-25T17:52:39.613Z,11.20
2023-05-25T17:55:07.041Z,14.05
2023-05-25T17:57:34.108Z,11.23
2023-05-25T18:00:01.773Z,12.38
2023-05-25T18:02:30.279Z,12.52
2023-05-25T18:04:57.592Z,10.45
2023-05-25T18:07:25.138Z,12.05
2023-05-25T18:09:52.347Z,9.30
2023-05-25T18:12:19.472Z,13.95
2023-05-25T18:14:46.635Z,10.38
2023-05-25T18:17:13.862Z,8.13
2023-05-25T18:19:41.035Z,9.98
2023-05-25T18:22:08.112Z,11.93
2023-05-25T18:24:35.244Z,10.20
2023-05-25T18:27:03.742Z,11.13
2023-05-25T18:29:31.077Z,11.10
2023-05-25T18:31:58.312Z,10.80
2023-05-25T18:34:25.577Z,12.27
2023-05-25T18:36:52.710Z,11.35
2023-05-25T18:39:19.754Z,12.10
2023-05-25T18:41:47.072Z,10.85
2023-05-25T18:44:14.305Z,9.85
2023-05-25T18:46:43.667Z,8.68
2023-05-25T18:49:11.347Z,11.48
2023-05-25T18:51:38.552Z,11.20
2023-05-25T18:54:05.683Z,10.75
2023-05-25T18:56:32.825Z,11.43
2023-05-25T18:58:59.965Z,11.50
2023-05-25T19:01:27.280Z,12.77
2023-05-25T19:03:56.770Z,12.77
2023-05-25T19:06:25.368Z,11.00
2023-05-25T19:08:52.486Z,13.25
2023-05-25T19:11:20.013Z,11.55
2023-05-25T19:13:47.243Z,17.05
2023-05-25T19:16:14.497Z,16.20
2023-05-25T19:18:41.633Z,13.60
2023-05-25T19:21:08.869Z,11.60
2023-05-25T19:23:36.059Z,11.95
2023-05-25T19:26:03.160Z,11.07
2023-05-25T19:28:30.336Z,11.68
2023-05-25T19:30:57.394Z,15.95
2023-05-25T19:33:24.485Z,15.20
2023-05-25T19:35:51.674Z,12.57
2023-05-25T19:38:18.970Z,13.55
2023-05-25T19:40:46.177Z,15.43
2023-05-25T19:43:13.250Z,11.70
2023-05-25T19:45:40.726Z,13.77
2023-05-25T19:48:07.841Z,10.52
2023-05-25T19:50:35.051Z,13.05
2023-05-25T19:53:02.093Z,14.50
2023-05-25T19:55:29.559Z,14.15
2023-05-25T19:57:56.729Z,14.20
2023-05-25T20:00:26.794Z,15.45
2023-05-25T20:02:54.718Z,12.90
2023-05-25T20:05:21.977Z,12.60
2023-05-25T20:07:50.821Z,14.45
2023-05-25T20:10:18.011Z,16.52
2023-05-25T20:12:46.236Z,14.55
2023-05-25T20:15:13.357Z,15.30
2023-05-25T20:17:40.544Z,17.77
2023-05-25T20:20:07.931Z,13.80
2023-05-25T20:22:35.452Z,13.52
2023-05-25T20:25:02.838Z,13.57
2023-05-25T20:27:29.970Z,14.60
2023-05-25T20:29:57.313Z,14.48
2023-05-25T20:32:24.569Z,14.00
2023-05-25T20:34:51.777Z,12.95
2023-05-25T20:37:18.929Z,15.00
2023-05-25T20:39:46.015Z,14.60
2023-05-25T20:42:13.992Z,13.63
2023-05-25T20:44:41.189Z,13.05
2023-05-25T20:47:08.367Z,12.95
2023-05-25T20:49:35.685Z,13.68
2023-05-25T20:52:02.880Z,15.70
2023-05-25T20:54:30.151Z,12.60
2023-05-25T20:56:57.393Z,13.50
2023-05-25T20:59:24.575Z,13.73
2023-05-25T21:01:51.718Z,14.93
2023-05-25T21:04:19.195Z,14.85
2023-05-25T21:06:46.312Z,14.77
2023-05-25T21:09:13.502Z,14.65
2023-05-25T21:11:40.545Z,16.60
2023-05-25T21:14:08.064Z,15.05
2023-05-25T21:16:35.328Z,14.00
2023-05-25T21:19:02.533Z,16.70
2023-05-25T21:21:33.730Z,14.60
2023-05-25T21:24:01.560Z,17.15
2023-05-25T21:26:29.003Z,13.93
2023-05-25T21:28:56.132Z,13.27
2023-05-25T21:31:26.515Z,15.90
2023-05-25T21:33:53.452Z,16.65
2023-05-25T21:36:20.790Z,14.77
2023-05-25T21:38:47.517Z,15.55
2023-05-25T21:41:14.752Z,16.88
2023-05-25T21:43:41.840Z,16.60
2023-05-25T21:46:08.936Z,15.43
2023-05-25T21:48:36.036Z,18.35
2023-05-25T21:51:02.873Z,15.80
2023-05-25T21:53:30.013Z,16.80
2023-05-25T21:55:57.151Z,15.57
2023-05-25T21:58:23.827Z,16.30
2023-05-25T22:00:50.652Z,15.10
2023-05-25T22:03:18.499Z,15.88
2023-05-25T22:05:46.057Z,16.85
2023-05-25T22:08:13.319Z,16.40
2023-05-25T22:10:40.462Z,15.25
2023-05-25T22:13:07.883Z,14.25
2023-05-25T22:15:35.218Z,15.93
2023-05-25T22:18:02.536Z,17.23
2023-05-25T22:20:29.272Z,18.20
2023-05-25T22:22:56.016Z,16.20
2023-05-25T22:25:22.854Z,16.13
2023-05-25T22:27:49.536Z,15.93
2023-05-25T22:30:16.309Z,15.77
2023-05-25T22:32:43.517Z,17.17
2023-05-25T22:35:10.841Z,16.08
2023-05-25T22:37:37.925Z,17.52
2023-05-25T22:40:06.101Z,15.25
2023-05-25T22:42:32.836Z,16.42
2023-05-25T22:44:59.528Z,15.65
2023-05-25T22:47:26.301Z,16.63
2023-05-25T22:49:52.953Z,17.00
2023-05-25T22:52:19.704Z,17.92
2023-05-25T22:54:46.526Z,16.27
2023-05-25T22:57:13.181Z,16.77
2023-05-25T22:59:40.345Z,17.40
2023-05-25T23:02:07.917Z,16.20
2023-05-25T23:04:36.463Z,16.65
2023-05-25T23:07:03.254Z,17.95
2023-05-25T23:09:29.950Z,17.30
2023-05-25T23:11:56.660Z,18.40
2023-05-25T23:14:23.317Z,20.60
2023-05-25T23:16:50.043Z,19.85
2023-05-25T23:19:17.811Z,15.88
2023-05-25T23:21:44.544Z,18.23
2023-05-25T23:24:11.231Z,17.27
2023-05-25T23:26:37.919Z,17.92
2023-05-25T23:29:04.593Z,16.88
2023-05-25T23:31:31.451Z,17.48
2023-05-25T23:33:58.270Z,19.35
2023-05-25T23:36:26.242Z,19.80
2023-05-25T23:38:53.072Z,17.88
2023-05-25T23:41:19.779Z,17.80
2023-05-25T23:43:46.614Z,18.17
2023-05-25T23:46:17.284Z,18.63
2023-05-25T23:48:45.331Z,19.15
2023-05-25T23:51:12.513Z,18.55
2023-05-25T23:53:39.938Z,20.02
2023-05-25T23:56:07.212Z,16.98
2023-05-25T23:58:34.499Z,17.98
